createdAt,value
2019-04-05T00:00:12.234Z,88.10
2019-04-05T00:02:44.359Z,89.00
2019-04-05T00:05:14.665Z,88.50
2019-04-05T00:07:44.211Z,87.40
2019-04-05T00:10:13.195Z,88.20
2019-04-05T00:12:42.173Z,88.50
2019-04-05T00:15:15.531Z,89.80
2019-04-05T00:17:43.330Z,89.10
2019-04-05T00:20:12.204Z,89.50
2019-04-05T00:22:42.733Z,87.50
2019-04-05T00:25:11.546Z,89.10
2019-04-05T00:27:43.002Z,88.40
2019-04-05T00:30:12.179Z,88.20
2019-04-05T00:32:41.713Z,88.20
2019-04-05T00:35:10.606Z,89.10
2019-04-05T00:37:39.381Z,88.40
2019-04-05T00:40:09.593Z,88.30
2019-04-05T00:42:38.557Z,90.50
2019-04-05T00:45:08.917Z,90.40
2019-04-05T00:47:38.433Z,91.00
2019-04-05T00:50:07.946Z,90.70
2019-04-05T00:52:37.004Z,90.30
2019-04-05T00:55:08.152Z,88.10
2019-04-05T00:57:38.107Z,89.70
2019-04-05T01:00:10.817Z,90.00
2019-04-05T01:02:39.621Z,90.00
2019-04-05T01:05:08.590Z,90.40
2019-04-05T01:07:37.427Z,90.60
2019-04-05T01:10:06.968Z,90.50
2019-04-05T01:12:35.858Z,90.10
2019-04-05T01:15:24.355Z,90.50
2019-04-05T01:17:54.596Z,90.80
2019-04-05T01:20:23.647Z,90.20
2019-04-05T01:22:52.426Z,90.40
2019-04-05T01:25:21.360Z,90.00
2019-04-05T01:27:50.448Z,90.80
2019-04-05T01:30:19.417Z,90.70
2019-04-05T01:32:48.892Z,90.50
2019-04-05T01:35:17.994Z,90.80
2019-04-05T01:37:46.952Z,91.60
2019-04-05T01:40:16.034Z,91.90
2019-04-05T01:42:44.801Z,91.60
2019-04-05T01:45:15.849Z,91.30
2019-04-05T01:47:44.901Z,91.50
2019-04-05T01:50:14.462Z,91.10
2019-04-05T01:52:43.458Z,91.60
2019-04-05T01:55:12.296Z,90.80
2019-04-05T01:57:41.169Z,91.10
2019-04-05T02:00:13.996Z,91.30
2019-04-05T02:02:42.382Z,91.90
2019-04-05T02:05:11.372Z,92.30
2019-04-05T02:07:40.449Z,92.50
2019-04-05T02:10:09.608Z,92.20
2019-04-05T02:12:38.578Z,92.50
2019-04-05T02:15:09.306Z,92.30
2019-04-05T02:17:38.382Z,92.10
2019-04-05T02:20:11.207Z,91.30
2019-04-05T02:22:41.272Z,91.60
2019-04-05T02:25:10.630Z,91.60
2019-04-05T02:27:39.544Z,92.10
2019-04-05T02:30:08.555Z,92.40
2019-04-05T02:32:37.345Z,92.50
2019-04-05T02:35:07.675Z,92.50
2019-04-05T02:37:37.103Z,92.40
2019-04-05T02:40:12.511Z,92.30
2019-04-05T02:42:41.472Z,92.50
2019-04-05T02:45:11.628Z,91.80
2019-04-05T02:47:42.837Z,91.60
2019-04-05T02:50:11.698Z,92.60
2019-04-05T02:52:42.315Z,92.50
2019-04-05T02:55:11.249Z,92.80
2019-04-05T02:57:40.658Z,92.80
2019-04-05T03:00:10.143Z,92.70
2019-04-05T03:02:40.644Z,93.20
2019-04-05T03:05:13.108Z,93.00
2019-04-05T03:07:43.209Z,92.50
2019-04-05T03:10:15.431Z,92.00
2019-04-05T03:12:44.347Z,92.30
2019-04-05T03:15:15.196Z,91.80
2019-04-05T03:17:44.013Z,91.80
2019-04-05T03:20:13.037Z,91.70
2019-04-05T03:22:42.092Z,92.00
2019-04-05T03:25:10.988Z,92.00
2019-04-05T03:27:39.911Z,91.40
2019-04-05T03:30:10.643Z,91.70
2019-04-05T03:32:39.453Z,91.60
2019-04-05T03:35:08.498Z,91.80
2019-04-05T03:37:37.411Z,91.90
2019-04-05T03:40:07.853Z,92.00
2019-04-05T03:42:36.878Z,92.70
2019-04-05T03:45:07.452Z,92.90
2019-04-05T03:47:36.371Z,92.80
2019-04-05T03:50:06.895Z,93.10
2019-04-05T03:52:35.953Z,92.80
2019-04-05T03:55:05.638Z,92.90
2019-04-05T03:57:34.689Z,92.80
2019-04-05T04:00:04.209Z,92.50
2019-04-05T04:02:33.129Z,92.00
2019-04-05T04:05:03.881Z,92.50
2019-04-05T04:07:32.698Z,92.30
2019-04-05T04:10:03.258Z,92.50
2019-04-05T04:12:32.218Z,92.20
2019-04-05T04:15:02.799Z,92.30
2019-04-05T04:17:31.638Z,92.00
2019-04-05T04:20:01.652Z,92.30
2019-04-05T04:22:32.345Z,92.60
2019-04-05T04:25:01.833Z,92.80
2019-04-05T04:27:31.518Z,93.00
2019-04-05T04:30:01.395Z,93.10
2019-04-05T04:32:30.512Z,92.40
2019-04-05T04:34:59.446Z,92.50
2019-04-05T04:37:28.463Z,92.00
2019-04-05T04:39:57.499Z,92.00
2019-04-05T04:42:28.069Z,92.30
2019-04-05T04:45:10.997Z,92.20
2019-04-05T04:47:30.288Z,92.50
2019-04-05T04:50:00.659Z,92.60
2019-04-05T04:52:32.350Z,92.70
2019-04-05T04:55:02.921Z,92.90
2019-04-05T04:57:32.669Z,92.70
2019-04-05T05:00:01.904Z,92.50
2019-04-05T05:02:32.224Z,92.10
2019-04-05T05:05:01.294Z,91.70
2019-04-05T05:07:30.197Z,91.90
2019-04-05T05:09:59.096Z,91.90
2019-04-05T05:12:30.172Z,91.80
2019-04-05T05:14:59.176Z,91.60
2019-04-05T05:17:37.952Z,92.00
2019-04-05T05:19:58.743Z,92.10
2019-04-05T05:22:27.614Z,92.40
2019-04-05T05:24:56.712Z,92.30
2019-04-05T05:27:30.157Z,91.90
2019-04-05T05:29:59.080Z,91.70
2019-04-05T05:32:28.877Z,91.40
2019-04-05T05:35:02.150Z,91.70
2019-04-05T05:37:28.458Z,91.60
2019-04-05T05:39:57.220Z,91.70
2019-04-05T05:42:26.112Z,91.80
2019-04-05T05:44:55.044Z,91.40
2019-04-05T05:47:24.197Z,91.30
2019-04-05T05:49:53.218Z,91.20
2019-04-05T05:52:22.429Z,92.00
2019-04-05T05:54:54.913Z,92.20
2019-04-05T05:57:24.061Z,92.20
2019-04-05T05:59:52.889Z,92.30
2019-04-05T06:02:23.514Z,92.60
2019-04-05T06:04:52.466Z,92.60
2019-04-05T06:07:21.452Z,91.70
2019-04-05T06:09:50.530Z,91.80
2019-04-05T06:12:20.899Z,91.10
2019-04-05T06:14:49.865Z,92.00
2019-04-05T06:17:19.071Z,93.00
2019-04-05T06:19:48.015Z,92.60
2019-04-05T06:22:17.143Z,92.70
2019-04-05T06:24:46.197Z,92.80
2019-04-05T06:27:17.907Z,93.10
2019-04-05T06:29:46.990Z,93.20
2019-04-05T06:32:16.036Z,92.80
2019-04-05T06:34:45.453Z,92.50
2019-04-05T06:37:14.592Z,93.00
2019-04-05T06:39:43.559Z,92.40
2019-04-05T06:42:14.315Z,92.60
2019-04-05T06:44:43.324Z,92.00
2019-04-05T06:47:14.024Z,91.70
2019-04-05T06:49:42.941Z,91.90
2019-04-05T06:52:12.045Z,92.40
2019-04-05T06:54:41.424Z,92.90
2019-04-05T06:57:10.513Z,92.90
2019-04-05T06:59:39.500Z,92.70
2019-04-05T07:02:09.094Z,92.30
2019-04-05T07:04:38.017Z,92.00
2019-04-05T07:07:07.136Z,92.00
2019-04-05T07:09:36.014Z,92.50
2019-04-05T07:12:05.857Z,92.80
2019-04-05T07:14:34.776Z,92.60
2019-04-05T07:17:03.813Z,92.50
2019-04-05T07:19:33.802Z,92.40
2019-04-05T07:22:03.418Z,92.10
2019-04-05T07:24:32.324Z,92.40
2019-04-05T07:27:03.509Z,91.70
2019-04-05T07:29:33.146Z,92.40
2019-04-05T07:32:03.088Z,93.10
2019-04-05T07:34:33.672Z,92.60
2019-04-05T07:37:02.818Z,93.10
2019-04-05T07:39:31.509Z,93.00
2019-04-05T07:42:00.487Z,92.20
2019-04-05T07:44:29.587Z,92.00
2019-04-05T07:47:00.178Z,92.60
2019-04-05T07:49:29.178Z,92.00
2019-04-05T07:51:58.014Z,92.10
2019-04-05T07:54:27.789Z,92.00
2019-04-05T07:56:59.552Z,91.70
2019-04-05T07:59:28.843Z,91.60
2019-04-05T08:01:58.070Z,92.40
2019-04-05T08:04:27.037Z,92.50
2019-04-05T08:06:58.666Z,92.70
2019-04-05T08:09:27.661Z,92.00
2019-04-05T08:11:56.531Z,91.50
2019-04-05T08:14:27.186Z,91.20
2019-04-05T08:17:00.667Z,91.10
2019-04-05T08:19:30.460Z,91.30
2019-04-05T08:21:59.654Z,90.90
2019-04-05T08:24:29.802Z,91.60
2019-04-05T08:26:58.691Z,91.70
2019-04-05T08:29:27.185Z,91.10
2019-04-05T08:31:55.823Z,90.50
2019-04-05T08:34:24.256Z,90.90
2019-04-05T08:36:52.695Z,91.00
2019-04-05T08:39:21.269Z,90.90
2019-04-05T08:41:49.771Z,90.30
2019-04-05T08:44:18.225Z,91.20
2019-04-05T08:46:47.579Z,90.30
2019-04-05T08:49:16.070Z,90.70
2019-04-05T08:51:44.523Z,90.60
2019-04-05T08:54:12.982Z,90.30
2019-04-05T08:56:41.413Z,90.70
2019-04-05T08:59:09.931Z,90.40
2019-04-05T09:01:38.350Z,90.60
2019-04-05T09:04:06.812Z,90.80
2019-04-05T09:06:35.243Z,90.60
2019-04-05T09:09:05.811Z,90.40
2019-04-05T09:11:34.304Z,90.60
2019-04-05T09:14:02.758Z,90.30
2019-04-05T09:16:31.178Z,90.60
2019-04-05T09:18:59.632Z,90.40
2019-04-05T09:21:28.058Z,90.40
2019-04-05T09:23:59.094Z,90.90
2019-04-05T09:26:26.634Z,90.60
2019-04-05T09:28:55.629Z,90.00
2019-04-05T09:31:24.468Z,90.60
2019-04-05T09:33:53.814Z,90.50
2019-04-05T09:36:23.554Z,90.50
2019-04-05T09:38:52.536Z,90.80
2019-04-05T09:41:21.431Z,90.30
2019-04-05T09:43:50.406Z,89.10
2019-04-05T09:46:20.308Z,89.10
2019-04-05T09:48:51.864Z,89.00
2019-04-05T09:51:20.912Z,88.90
2019-04-05T09:53:50.057Z,90.00
2019-04-05T09:56:20.047Z,89.20
2019-04-05T09:58:50.760Z,89.20
2019-04-05T10:01:19.800Z,89.50
2019-04-05T10:03:48.735Z,89.20
2019-04-05T10:06:17.681Z,88.90
2019-04-05T10:08:46.672Z,88.70
2019-04-05T10:11:15.763Z,89.10
2019-04-05T10:13:44.796Z,89.80
2019-04-05T10:16:13.748Z,90.00
2019-04-05T10:18:42.747Z,90.00
2019-04-05T10:21:11.725Z,89.70
2019-04-05T10:23:41.348Z,88.50
2019-04-05T10:26:10.397Z,88.80
2019-04-05T10:28:39.576Z,88.30
2019-04-05T10:31:09.977Z,88.10
2019-04-05T10:33:39.786Z,87.90
2019-04-05T10:36:09.212Z,87.50
2019-04-05T10:38:38.067Z,88.80
2019-04-05T10:41:07.102Z,89.20
2019-04-05T10:43:36.223Z,87.50
2019-04-05T10:46:05.793Z,87.80
2019-04-05T10:48:36.379Z,89.30
2019-04-05T10:51:05.358Z,90.00
2019-04-05T10:53:34.558Z,89.30
2019-04-05T10:56:03.642Z,90.00
2019-04-05T10:58:32.743Z,90.20
2019-04-05T11:01:02.366Z,90.20
2019-04-05T11:03:31.920Z,89.30
2019-04-05T11:06:00.986Z,90.00
2019-04-05T11:08:30.157Z,89.20
2019-04-05T11:10:59.077Z,89.00
2019-04-05T11:13:30.508Z,88.40
2019-04-05T11:15:59.346Z,88.30
2019-04-05T11:18:28.222Z,88.00
2019-04-05T11:20:56.991Z,87.90
2019-04-05T11:23:26.143Z,86.80
2019-04-05T11:25:55.224Z,86.90
2019-04-05T11:28:24.620Z,87.70
2019-04-05T11:30:53.641Z,87.00
2019-04-05T11:33:22.486Z,88.00
2019-04-05T11:35:51.538Z,87.20
2019-04-05T11:38:20.649Z,87.90
2019-04-05T11:40:51.292Z,86.50
2019-04-05T11:43:21.705Z,86.10
2019-04-05T11:45:51.790Z,85.40
2019-04-05T11:48:21.222Z,84.60
2019-04-05T11:50:50.335Z,85.10
2019-04-05T11:53:22.129Z,83.80
2019-04-05T11:55:51.829Z,83.60
2019-04-05T11:58:20.798Z,83.10
2019-04-05T12:00:55.748Z,82.40
2019-04-05T12:03:30.168Z,83.10
2019-04-05T12:05:59.041Z,83.10
2019-04-05T12:08:27.857Z,81.50
2019-04-05T12:10:58.392Z,81.70
2019-04-05T12:13:27.111Z,81.20
2019-04-05T12:15:58.149Z,82.80
2019-04-05T12:18:26.750Z,83.00
2019-04-05T12:21:00.312Z,81.10
2019-04-05T12:23:26.411Z,81.40
2019-04-05T12:25:55.539Z,81.40
2019-04-05T12:28:24.564Z,78.60
2019-04-05T12:30:53.672Z,78.10
2019-04-05T12:33:23.984Z,80.00
2019-04-05T12:35:56.276Z,79.30
2019-04-05T12:38:33.364Z,79.70
2019-04-05T12:41:03.917Z,77.40
2019-04-05T12:43:35.120Z,79.40
2019-04-05T12:46:23.462Z,78.50
2019-04-05T12:48:52.838Z,78.10
2019-04-05T12:51:22.494Z,77.10
2019-04-05T12:53:51.556Z,78.70
2019-04-05T12:56:20.637Z,77.10
2019-04-05T12:58:49.717Z,76.60
2019-04-05T13:01:19.584Z,78.10
2019-04-05T13:03:51.364Z,77.40
2019-04-05T13:06:27.458Z,76.70
2019-04-05T13:08:56.438Z,77.50
2019-04-05T13:11:26.795Z,76.70
2019-04-05T13:13:56.343Z,78.10
2019-04-05T13:16:26.150Z,77.80
2019-04-05T13:18:55.245Z,79.30
2019-04-05T13:21:27.608Z,78.50
2019-04-05T13:23:54.826Z,79.10
2019-04-05T13:26:26.304Z,79.60
2019-04-05T13:28:54.873Z,79.90
2019-04-05T13:31:23.980Z,79.90
2019-04-05T13:33:55.214Z,79.70
2019-04-05T13:36:23.394Z,79.30
2019-04-05T13:38:55.053Z,78.80
2019-04-05T13:41:24.743Z,77.10
2019-04-05T13:43:53.861Z,76.80
2019-04-05T13:46:25.977Z,73.70
2019-04-05T13:48:55.679Z,74.20
2019-04-05T13:51:28.101Z,70.90
2019-04-05T13:53:55.457Z,70.10
2019-04-05T13:56:24.588Z,68.40
2019-04-05T13:58:55.227Z,66.90
2019-04-05T14:01:24.149Z,65.00
2019-04-05T14:03:52.986Z,63.50
2019-04-05T14:06:22.146Z,61.10
2019-04-05T14:08:52.715Z,58.40
2019-04-05T14:11:21.822Z,58.00
2019-04-05T14:13:52.321Z,54.00
2019-04-05T14:16:23.067Z,57.10
2019-04-05T14:18:52.016Z,57.20
2019-04-05T14:21:22.466Z,56.70
2019-04-05T14:23:53.281Z,52.30
2019-04-05T14:26:22.225Z,51.80
2019-04-05T14:28:52.984Z,53.90
2019-04-05T14:31:22.025Z,54.90
2019-04-05T14:33:53.988Z,59.80
2019-04-05T14:36:23.527Z,61.20
2019-04-05T14:38:59.606Z,63.70
2019-04-05T14:41:29.469Z,64.60
2019-04-05T14:43:58.408Z,65.30
2019-04-05T14:46:29.169Z,66.20
2019-04-05T14:48:58.530Z,66.60
2019-04-05T14:51:29.381Z,66.80
2019-04-05T14:54:01.430Z,65.00
2019-04-05T14:56:29.332Z,65.40
2019-04-05T14:58:59.963Z,67.50
2019-04-05T15:01:29.176Z,65.60
2019-04-05T15:03:58.076Z,65.30
2019-04-05T15:06:29.530Z,65.00
2019-04-05T15:08:58.490Z,64.00
2019-04-05T15:11:29.418Z,63.00
2019-04-05T15:13:58.087Z,61.90
2019-04-05T15:16:29.429Z,62.30
2019-04-05T15:18:58.410Z,61.80
2019-04-05T15:21:27.400Z,62.20
2019-04-05T15:23:58.375Z,60.80
2019-04-05T15:26:27.283Z,59.40
2019-04-05T15:28:56.192Z,60.00
2019-04-05T15:31:28.375Z,60.20
2019-04-05T15:34:02.342Z,59.40
2019-04-05T15:36:35.715Z,59.70
2019-04-05T15:39:08.294Z,60.30
2019-04-05T15:41:37.456Z,60.40
2019-04-05T15:44:06.509Z,59.80
2019-04-05T15:46:38.623Z,61.40
2019-04-05T15:49:09.236Z,61.40
2019-04-05T15:51:39.227Z,61.80
2019-04-05T15:54:08.280Z,62.00
2019-04-05T15:56:39.184Z,61.80
2019-04-05T15:59:09.525Z,62.90
2019-04-05T16:01:40.257Z,62.80
2019-04-05T16:04:10.890Z,62.30
2019-04-05T16:06:43.548Z,63.10
2019-04-05T16:09:15.828Z,64.60
2019-04-05T16:11:56.581Z,66.90
2019-04-05T16:14:28.472Z,67.40
2019-04-05T16:16:59.483Z,69.30
2019-04-05T16:19:30.069Z,69.60
2019-04-05T16:21:59.161Z,71.60
2019-04-05T16:24:28.226Z,71.90
2019-04-05T16:26:59.706Z,70.90
2019-04-05T16:29:28.652Z,71.10
2019-04-05T16:32:00.432Z,72.00
2019-04-05T16:34:48.715Z,70.60
2019-04-05T16:37:17.613Z,70.10
2019-04-05T16:39:46.637Z,70.40
2019-04-05T16:42:15.723Z,71.00
2019-04-05T16:44:44.678Z,70.70
2019-04-05T16:47:13.642Z,71.00
2019-04-05T16:49:42.817Z,71.50
2019-04-05T16:52:11.907Z,71.00
2019-04-05T16:54:40.845Z,71.50
2019-04-05T16:57:09.833Z,72.10
2019-04-05T16:59:38.777Z,72.50
2019-04-05T17:02:08.126Z,71.40
2019-04-05T17:04:36.987Z,71.80
2019-04-05T17:07:06.154Z,73.20
2019-04-05T17:09:35.128Z,72.40
2019-04-05T17:12:05.249Z,72.50
2019-04-05T17:14:38.974Z,72.40
2019-04-05T17:17:08.040Z,72.30
2019-04-05T17:19:38.280Z,72.70
2019-04-05T17:22:07.327Z,73.20
2019-04-05T17:24:36.251Z,73.50
2019-04-05T17:27:05.196Z,73.70
2019-04-05T17:29:34.059Z,74.70
2019-04-05T17:32:02.958Z,75.30
2019-04-05T17:34:32.002Z,75.00
2019-04-05T17:37:01.134Z,76.40
2019-04-05T17:39:30.195Z,76.10
2019-04-05T17:41:59.262Z,76.70
2019-04-05T17:44:28.322Z,77.70
2019-04-05T17:46:58.801Z,78.40
2019-04-05T17:49:28.742Z,78.30
2019-04-05T17:52:00.616Z,78.20
2019-04-05T17:54:29.892Z,78.70
2019-04-05T17:56:58.945Z,80.00
2019-04-05T17:59:28.220Z,80.20
2019-04-05T18:01:58.100Z,81.80
2019-04-05T18:04:27.183Z,81.70
2019-04-05T18:06:56.314Z,82.10
2019-04-05T18:09:27.317Z,81.60
2019-04-05T18:11:56.118Z,81.10
2019-04-05T18:14:26.447Z,83.10
2019-04-05T18:16:57.098Z,81.70
2019-04-05T18:19:26.019Z,83.30
2019-04-05T18:21:55.232Z,83.10
2019-04-05T18:24:24.397Z,83.90
2019-04-05T18:26:53.588Z,82.60
2019-04-05T18:29:22.586Z,82.20
2019-04-05T18:31:52.086Z,83.90
2019-04-05T18:36:50.062Z,83.80
2019-04-05T18:39:19.309Z,82.60
2019-04-05T18:41:49.855Z,82.30
2019-04-05T18:44:18.812Z,82.10
2019-04-05T18:46:48.705Z,83.90
2019-04-05T18:49:19.445Z,84.20
2019-04-05T18:51:48.590Z,84.10
2019-04-05T18:54:19.130Z,84.50
2019-04-05T18:56:48.382Z,84.20
2019-04-05T18:59:17.433Z,83.30
2019-04-05T19:01:46.436Z,84.00
2019-04-05T19:04:15.539Z,84.00
2019-04-05T19:06:45.788Z,84.50
2019-04-05T19:09:14.765Z,83.80
2019-04-05T19:11:43.887Z,83.90
2019-04-05T19:14:14.748Z,84.20
2019-04-05T19:16:43.817Z,83.10
2019-04-05T19:19:12.946Z,83.30
2019-04-05T19:21:43.521Z,84.20
2019-04-05T19:24:13.259Z,85.00
2019-04-05T19:26:42.293Z,83.80
2019-04-05T19:29:12.653Z,84.20
2019-04-05T19:49:21.950Z,85.30
2019-04-05T19:51:51.064Z,85.70
2019-04-05T19:54:21.616Z,86.50
2019-04-05T19:56:50.690Z,84.60
2019-04-05T19:59:19.775Z,84.20
2019-04-05T20:01:51.356Z,83.30
2019-04-05T20:04:22.217Z,83.30
2019-04-05T20:06:58.328Z,83.40
2019-04-05T20:09:23.824Z,84.00
2019-04-05T20:11:52.934Z,83.70
2019-04-05T20:14:33.594Z,84.20
2019-04-05T20:17:02.289Z,85.40
2019-04-05T20:19:31.306Z,85.00
2019-04-05T20:22:00.393Z,84.80
2019-04-05T20:24:31.651Z,85.70
2019-04-05T20:27:00.366Z,86.20
2019-04-05T20:29:29.322Z,86.60
2019-04-05T20:32:04.112Z,85.50
2019-04-05T20:34:36.442Z,85.90
2019-04-05T20:37:05.467Z,86.60
2019-04-05T20:39:35.176Z,85.10
2019-04-05T20:42:04.213Z,85.10
2019-04-05T20:44:33.245Z,84.70
2019-04-05T20:47:03.648Z,84.90
2019-04-05T20:49:32.756Z,86.30
2019-04-05T20:52:01.738Z,86.50
2019-04-05T20:54:32.550Z,86.60
2019-04-05T20:57:02.193Z,86.50
2019-04-05T20:59:31.215Z,86.60
2019-04-05T21:02:01.877Z,86.50
2019-04-05T21:04:30.863Z,85.80
2019-04-05T21:06:59.843Z,85.60
2019-04-05T21:09:30.405Z,85.30
2019-04-05T21:11:59.309Z,86.40
2019-04-05T21:14:28.155Z,86.60
2019-04-05T21:16:57.382Z,86.20
2019-04-05T21:19:26.476Z,85.40
2019-04-05T21:21:55.463Z,86.70
2019-04-05T21:24:35.542Z,87.20
2019-04-05T21:26:55.449Z,86.20
2019-04-05T21:29:24.375Z,85.90
2019-04-05T21:31:55.594Z,86.30
2019-04-05T21:34:24.537Z,86.20
2019-04-05T21:36:54.332Z,86.00
2019-04-05T21:39:23.355Z,86.60
2019-04-05T21:41:52.331Z,86.60
2019-04-05T21:44:23.183Z,86.60
2019-04-05T21:46:52.033Z,86.80
2019-04-05T21:49:22.449Z,87.20
2019-04-05T21:51:51.298Z,86.70
2019-04-05T21:54:20.473Z,86.60
2019-04-05T21:56:49.832Z,86.30
2019-04-05T21:59:18.826Z,86.80
2019-04-05T22:01:49.664Z,87.00
2019-04-05T22:04:19.953Z,86.80
2019-04-05T22:06:50.115Z,86.50
2019-04-05T22:09:38.323Z,87.40
2019-04-05T22:12:07.429Z,86.30
2019-04-05T22:14:36.462Z,87.30
2019-04-05T22:17:05.598Z,86.60
2019-04-05T22:19:34.690Z,86.50
2019-04-05T22:22:03.614Z,87.20
2019-04-05T22:24:32.658Z,87.40
2019-04-05T22:27:01.667Z,87.70
2019-04-05T22:29:31.811Z,87.90
2019-04-05T22:32:01.412Z,87.50
2019-04-05T22:34:30.477Z,87.50
2019-04-05T22:37:00.223Z,87.70
2019-04-05T22:39:33.646Z,87.40
2019-04-05T22:42:02.666Z,87.80
2019-04-05T22:44:39.937Z,87.60
2019-04-05T22:47:03.826Z,87.00
2019-04-05T22:49:36.240Z,87.20
2019-04-05T22:52:07.124Z,87.40
2019-04-05T22:54:36.181Z,88.60
2019-04-05T22:57:05.070Z,87.70
2019-04-05T22:59:34.000Z,88.40
2019-04-05T23:02:02.854Z,88.90
2019-04-05T23:04:32.283Z,88.90
2019-04-05T23:07:01.311Z,88.00
2019-04-05T23:09:30.391Z,88.30
2019-04-05T23:11:59.476Z,88.90
2019-04-05T23:14:29.997Z,88.30
2019-04-05T23:17:00.052Z,88.60
2019-04-05T23:19:29.140Z,89.20
2019-04-05T23:21:58.069Z,89.00
2019-04-05T23:24:27.045Z,89.20
2019-04-05T23:26:56.006Z,88.60
2019-04-05T23:29:25.009Z,89.10
2019-04-05T23:31:53.954Z,88.10
2019-04-05T23:34:22.915Z,87.70
2019-04-05T23:36:52.964Z,87.50
2019-04-05T23:39:21.585Z,88.00
2019-04-05T23:41:50.792Z,88.10
2019-04-05T23:44:19.755Z,88.00
2019-04-05T23:46:49.761Z,87.50
2019-04-05T23:49:21.469Z,88.50
2019-04-05T23:51:51.986Z,89.50
2019-04-05T23:54:20.958Z,88.60
2019-04-05T23:56:49.981Z,88.70
2019-04-05T23:59:18.978Z,88.50
